TFM - Tactical Decision Aid (Experimental) INFO Settings
ID: Runway Winds: CIG/VIS Threshold: METAR Board: Map:

KSYI - Shelbyville/Bomar Fl

Updated at: 2304 UTC 20 Feb 2018

TAF Board

METAR
KSYI 202255Z AUTO 17008KT 10SM BKN040 BKN048 OVC060 23/16 A3021 RMK A01
KSYI 202235Z AUTO 14007KT 10SM FEW041 SCT049 BKN060 23/16 A3020 RMK A01
KSYI 202215Z AUTO 17009KT 10SM FEW070 OVC080 23/16 A3020 RMK A01
KSYI 202155Z AUTO 17014G20KT 10SM OVC075 23/16 A3020 RMK A01
KSYI 202135Z AUTO 18013KT 10SM OVC075 24/16 A3019 RMK A01

TAF/METAR Board Legend

Potential Impact
  None Marginal Slight Moderate High
Visibility (sm) > ≤X≤ <
Ceiling (100 ft) > ≤X≤ <
Wind Speed (kt) <10 10≤X<20 20≤X<30 ≥30
Wind Gust (kt) <15 15≤X<25 25≤X<35 ≥35
Weather No Wx Reported VCTS -TS,-FZRA TS,FZRA +TS,+FZRA





Page loaded:  23:04 UTC  |   03:04 PM Pacific  |   04:04 PM Mountain  |   05:04 PM Central  |   06:04 PM Eastern